Extreme weather reports worldwide

Snow

Station
 
Location
 
Name
 
Wind
Knots
Gust
Knots
Vis
SM
Temp/Dew
C
Baro
inHg
METAR
 
BRC SAZS San Carlos de Bariloche, AR San Carlos De Bariloche Airport 5 1.86 0/-1 30.24 SAZS 080140Z 15005KT 3000 SN BKN004 OVC010 00/M01 Q1024
RGA SAWE Rio Grande, AR Hermes Quijada International Airport 2 4.97 1/0 30.38 SAWE 080110Z 29002KT 8000 -SN SCT010 BKN018 01/00 Q1029